createdAt,value
2019-01-27T00:00:43.537Z,88.89
2019-01-27T00:01:43.513Z,88.26
2019-01-27T00:02:43.505Z,88.57
2019-01-27T00:03:43.521Z,88.37
2019-01-27T00:04:43.489Z,88.57
2019-01-27T00:05:43.618Z,88.26
2019-01-27T00:06:43.454Z,87.65
2019-01-27T00:07:43.502Z,87.65
2019-01-27T00:08:43.505Z,88.37
2019-01-27T00:09:43.423Z,88.32
2019-01-27T00:10:43.422Z,87.54
2019-01-27T00:11:43.423Z,87.95
2019-01-27T00:12:43.399Z,87.95
2019-01-27T00:13:43.390Z,87.54
2019-01-27T00:14:43.392Z,87.74
2019-01-27T00:15:43.354Z,87.44
2019-01-27T00:16:43.341Z,87.65
2019-01-27T00:17:43.353Z,87.65
2019-01-27T00:18:43.335Z,88.57
2019-01-27T00:19:43.320Z,88.57
2019-01-27T00:20:43.328Z,88.57
2019-01-27T00:21:43.413Z,88.57
2019-01-27T00:22:43.287Z,88.37
2019-01-27T00:23:43.267Z,87.95
2019-01-27T00:24:43.339Z,87.65
2019-01-27T00:25:43.251Z,88.57
2019-01-27T00:26:43.257Z,88.22
2019-01-27T00:27:43.231Z,88.53
2019-01-27T00:28:43.217Z,88.47
2019-01-27T00:29:43.209Z,88.47
2019-01-27T00:30:43.200Z,88.53
2019-01-27T00:31:43.214Z,88.37
2019-01-27T00:32:43.263Z,88.43
2019-01-27T00:33:43.157Z,88.57
2019-01-27T00:34:43.156Z,88.84
2019-01-27T00:35:43.135Z,88.57
2019-01-27T00:36:43.122Z,88.84
2019-01-27T00:37:43.140Z,88.98
2019-01-27T00:38:43.099Z,89.46
2019-01-27T00:39:43.098Z,89.25
2019-01-27T00:40:43.081Z,89.40
2019-01-27T00:41:43.064Z,89.50
2019-01-27T00:42:43.055Z,89.61
2019-01-27T00:43:43.073Z,89.50
2019-01-27T00:44:43.046Z,89.81
2019-01-27T00:45:43.126Z,89.61
2019-01-27T00:46:43.025Z,89.61
2019-01-27T00:47:43.010Z,89.61
2019-01-27T00:48:43.061Z,90.12
2019-01-27T00:49:43.007Z,90.02
2019-01-27T00:50:43.823Z,89.92
2019-01-27T00:51:42.957Z,90.12
2019-01-27T00:52:42.953Z,90.12
2019-01-27T00:53:42.934Z,90.95
2019-01-27T00:54:42.948Z,90.84
2019-01-27T00:55:42.914Z,90.95
2019-01-27T00:56:42.915Z,90.95
2019-01-27T00:57:42.934Z,90.53
2019-01-27T00:58:42.898Z,90.84
2019-01-27T00:59:42.870Z,91.16
2019-01-27T01:00:50.747Z,91.26
2019-01-27T01:01:43.886Z,90.74
2019-01-27T01:02:42.903Z,90.74
2019-01-27T01:03:42.959Z,90.84
2019-01-27T01:04:43.495Z,90.95
2019-01-27T01:05:43.018Z,90.64
2019-01-27T01:06:43.383Z,91.26
2019-01-27T01:07:42.907Z,90.84
2019-01-27T01:08:42.859Z,90.95
2019-01-27T01:09:43.451Z,91.16
2019-01-27T01:10:43.436Z,91.05
2019-01-27T01:11:42.928Z,91.56
2019-01-27T01:12:42.811Z,91.36
2019-01-27T01:13:42.878Z,91.67
2019-01-27T01:14:42.849Z,92.08
2019-01-27T01:15:43.380Z,91.98
2019-01-27T01:16:43.518Z,91.88
2019-01-27T01:17:42.878Z,91.88
2019-01-27T01:18:42.779Z,91.46
2019-01-27T01:19:43.500Z,91.46
2019-01-27T01:20:43.340Z,91.67
2019-01-27T01:21:42.699Z,91.46
2019-01-27T01:22:42.702Z,92.29
2019-01-27T01:23:42.723Z,92.91
2019-01-27T01:24:42.711Z,92.70
2019-01-27T01:25:43.356Z,92.08
2019-01-27T01:26:42.740Z,92.33
2019-01-27T01:27:42.651Z,92.80
2019-01-27T01:28:42.637Z,92.80
2019-01-27T01:29:42.854Z,92.95
2019-01-27T01:30:42.682Z,93.26
2019-01-27T01:31:42.656Z,93.98
2019-01-27T01:32:42.569Z,93.37
2019-01-27T01:33:42.574Z,93.98
2019-01-27T01:34:43.403Z,93.78
2019-01-27T01:35:43.390Z,93.78
2019-01-27T01:36:42.567Z,93.68
2019-01-27T01:37:42.612Z,93.68
2019-01-27T01:38:42.498Z,94.60
2019-01-27T01:39:42.518Z,94.56
2019-01-27T01:40:43.448Z,94.09
2019-01-27T01:41:43.353Z,93.98
2019-01-27T01:42:43.388Z,94.50
2019-01-27T01:43:43.456Z,94.46
2019-01-27T01:44:42.455Z,93.98
2019-01-27T01:45:42.460Z,94.29
2019-01-27T01:46:42.468Z,94.40
2019-01-27T01:47:42.701Z,93.84
2019-01-27T01:48:42.462Z,94.29
2019-01-27T01:49:42.589Z,94.19
2019-01-27T01:50:42.886Z,94.29
2019-01-27T01:51:42.382Z,94.19
2019-01-27T01:52:42.403Z,94.19
2019-01-27T01:53:42.400Z,93.88
2019-01-27T01:54:44.961Z,93.98
2019-01-27T01:55:42.921Z,93.98
2019-01-27T01:56:42.330Z,93.98
2019-01-27T01:57:42.965Z,94.09
2019-01-27T01:58:42.321Z,94.19
2019-01-27T01:59:43.347Z,94.09
2019-01-27T02:00:45.051Z,94.50
2019-01-27T02:01:42.557Z,94.92
2019-01-27T02:02:42.275Z,94.92
2019-01-27T02:03:42.268Z,94.40
2019-01-27T02:04:42.290Z,94.71
2019-01-27T02:05:42.273Z,94.81
2019-01-27T02:06:43.018Z,94.92
2019-01-27T02:07:42.603Z,94.50
2019-01-27T02:08:42.912Z,95.02
2019-01-27T02:09:42.218Z,94.71
2019-01-27T02:10:42.147Z,94.60
2019-01-27T02:11:43.016Z,94.71
2019-01-27T02:12:42.229Z,94.50
2019-01-27T02:13:42.250Z,94.92
2019-01-27T02:14:42.130Z,95.02
2019-01-27T02:15:42.159Z,94.60
2019-01-27T02:16:42.131Z,94.71
2019-01-27T02:17:49.043Z,94.60
2019-01-27T02:18:42.180Z,94.81
2019-01-27T02:19:43.112Z,94.50
2019-01-27T02:20:42.094Z,94.81
2019-01-27T02:21:42.184Z,94.60
2019-01-27T02:22:43.035Z,94.56
2019-01-27T02:23:42.117Z,94.67
2019-01-27T02:24:42.035Z,94.25
2019-01-27T02:25:42.947Z,94.25
2019-01-27T02:26:42.041Z,94.25
2019-01-27T02:27:42.355Z,94.09
2019-01-27T02:28:42.030Z,94.71
2019-01-27T02:29:42.030Z,94.60
2019-01-27T02:30:41.941Z,94.60
2019-01-27T02:31:42.067Z,94.29
2019-01-27T02:32:41.933Z,93.98
2019-01-27T02:33:42.041Z,94.50
2019-01-27T02:34:42.884Z,94.25
2019-01-27T02:35:42.482Z,93.84
2019-01-27T02:36:41.873Z,93.63
2019-01-27T02:37:41.983Z,93.84
2019-01-27T02:38:42.004Z,93.94
2019-01-27T02:39:42.514Z,94.09
2019-01-27T02:40:43.357Z,94.04
2019-01-27T02:41:41.806Z,94.25
2019-01-27T02:42:42.864Z,93.94
2019-01-27T02:43:41.819Z,94.15
2019-01-27T02:44:42.057Z,94.25
2019-01-27T02:45:42.465Z,93.94
2019-01-27T02:46:42.454Z,93.53
2019-01-27T02:47:42.697Z,93.63
2019-01-27T02:48:41.779Z,93.84
2019-01-27T02:49:41.786Z,93.53
2019-01-27T02:50:41.877Z,93.73
2019-01-27T02:51:42.387Z,93.73
2019-01-27T02:52:42.397Z,93.53
2019-01-27T02:53:42.128Z,93.32
2019-01-27T02:54:41.699Z,93.22
2019-01-27T02:55:41.726Z,93.22
2019-01-27T02:56:42.427Z,93.43
2019-01-27T02:57:42.559Z,93.63
2019-01-27T02:58:41.630Z,93.53
2019-01-27T02:59:41.630Z,93.01
2019-01-27T03:00:41.662Z,93.01
2019-01-27T03:01:41.768Z,93.12
2019-01-27T03:02:41.673Z,92.70
2019-01-27T03:03:41.578Z,92.80
2019-01-27T03:04:41.590Z,93.22
2019-01-27T03:05:41.588Z,92.91
2019-01-27T03:06:42.514Z,93.22
2019-01-27T03:07:41.600Z,93.38
2019-01-27T03:08:42.536Z,92.76
2019-01-27T03:09:41.519Z,93.12
2019-01-27T03:10:41.520Z,92.80
2019-01-27T03:11:41.532Z,92.50
2019-01-27T03:12:41.534Z,92.29
2019-01-27T03:13:41.517Z,92.50
2019-01-27T03:14:41.963Z,92.60
2019-01-27T03:15:41.461Z,92.70
2019-01-27T03:16:41.474Z,92.40
2019-01-27T03:17:41.683Z,92.80
2019-01-27T03:18:41.475Z,92.91
2019-01-27T03:19:41.487Z,92.60
2019-01-27T03:20:41.392Z,92.08
2019-01-27T03:21:42.005Z,92.29
2019-01-27T03:22:41.490Z,92.70
2019-01-27T03:23:41.925Z,92.08
2019-01-27T03:24:41.420Z,92.80
2019-01-27T03:25:41.399Z,92.50
2019-01-27T03:26:41.332Z,92.50
2019-01-27T03:27:41.327Z,92.70
2019-01-27T03:28:41.321Z,92.55
2019-01-27T03:29:41.456Z,92.66
2019-01-27T03:30:41.876Z,92.19
2019-01-27T03:31:41.358Z,92.70
2019-01-27T03:32:41.374Z,92.80
2019-01-27T03:33:41.279Z,92.80
2019-01-27T03:34:41.274Z,92.50
2019-01-27T03:35:41.280Z,92.29
2019-01-27T03:36:41.915Z,92.14
2019-01-27T03:37:41.162Z,92.29
2019-01-27T03:38:41.292Z,92.35
2019-01-27T03:39:41.193Z,92.60
2019-01-27T03:40:41.318Z,92.19
2019-01-27T03:41:41.216Z,91.94
2019-01-27T03:42:41.136Z,91.77
2019-01-27T03:43:41.132Z,91.83
2019-01-27T03:44:41.078Z,91.42
2019-01-27T03:45:41.133Z,91.77
2019-01-27T03:46:41.251Z,91.94
2019-01-27T03:47:41.160Z,91.94
2019-01-27T03:48:41.997Z,92.25
2019-01-27T03:49:41.176Z,92.76
2019-01-27T03:50:41.097Z,92.80
2019-01-27T03:51:41.121Z,92.91
2019-01-27T03:52:41.107Z,92.76
2019-01-27T03:53:40.994Z,92.66
2019-01-27T03:54:41.013Z,92.70
2019-01-27T03:55:41.091Z,92.66
2019-01-27T03:56:40.995Z,92.29
2019-01-27T03:57:47.995Z,92.25
2019-01-27T03:58:41.135Z,92.29
2019-01-27T03:59:41.516Z,91.56
2019-01-27T04:00:41.253Z,92.08
2019-01-27T04:01:40.968Z,91.73
2019-01-27T04:02:41.083Z,92.04
2019-01-27T04:03:41.902Z,91.83
2019-01-27T04:04:40.846Z,91.94
2019-01-27T04:05:40.853Z,92.04
2019-01-27T04:06:40.972Z,92.29
2019-01-27T04:07:40.868Z,91.52
2019-01-27T04:08:41.489Z,91.67
2019-01-27T04:09:41.598Z,91.32
2019-01-27T04:10:40.785Z,92.25
2019-01-27T04:11:40.799Z,91.67
2019-01-27T04:12:41.129Z,91.77
2019-01-27T04:13:40.809Z,91.98
2019-01-27T04:14:40.808Z,91.83
2019-01-27T04:15:41.475Z,91.98
2019-01-27T04:16:40.801Z,91.73
2019-01-27T04:17:43.607Z,92.29
2019-01-27T04:18:40.784Z,91.56
2019-01-27T04:19:40.895Z,91.42
2019-01-27T04:20:40.784Z,91.63
2019-01-27T04:21:42.371Z,91.73
2019-01-27T04:22:40.679Z,91.63
2019-01-27T04:23:40.681Z,90.91
2019-01-27T04:24:40.679Z,91.36
2019-01-27T04:25:40.788Z,90.84
2019-01-27T04:26:40.670Z,90.74
2019-01-27T04:27:40.597Z,91.42
2019-01-27T04:28:40.633Z,91.01
2019-01-27T04:29:40.629Z,90.95
2019-01-27T04:30:40.627Z,91.36
2019-01-27T04:31:40.741Z,90.70
2019-01-27T04:32:41.460Z,89.81
2019-01-27T04:33:40.703Z,90.02
2019-01-27T04:34:40.557Z,90.28
2019-01-27T04:35:40.581Z,90.28
2019-01-27T04:36:40.664Z,90.08
2019-01-27T04:37:40.800Z,89.98
2019-01-27T04:38:40.521Z,89.67
2019-01-27T04:39:40.485Z,89.56
2019-01-27T04:40:40.489Z,89.87
2019-01-27T04:41:40.553Z,89.98
2019-01-27T04:42:40.547Z,90.12
2019-01-27T04:43:40.534Z,89.87
2019-01-27T04:44:40.521Z,90.08
2019-01-27T04:45:40.443Z,89.87
2019-01-27T04:46:40.429Z,90.08
2019-01-27T04:47:40.439Z,90.08
2019-01-27T04:48:40.446Z,90.19
2019-01-27T04:49:41.395Z,89.87
2019-01-27T04:50:40.391Z,89.56
2019-01-27T04:51:40.368Z,89.67
2019-01-27T04:52:40.378Z,89.77
2019-01-27T04:53:40.405Z,89.56
2019-01-27T04:54:40.488Z,89.56
2019-01-27T04:55:40.295Z,89.98
2019-01-27T04:56:40.296Z,89.67
2019-01-27T04:57:40.301Z,89.46
2019-01-27T04:58:40.308Z,89.77
2019-01-27T04:59:40.515Z,89.46
2019-01-27T05:00:40.349Z,89.25
2019-01-27T05:01:40.286Z,89.46
2019-01-27T05:02:40.253Z,89.56
2019-01-27T05:03:40.241Z,89.46
2019-01-27T05:04:40.289Z,89.56
2019-01-27T05:05:40.291Z,89.77
2019-01-27T05:06:40.163Z,89.77
2019-01-27T05:07:40.191Z,89.56
2019-01-27T05:08:40.192Z,89.98
2019-01-27T05:09:40.279Z,89.67
2019-01-27T05:10:40.335Z,89.87
2019-01-27T05:11:40.192Z,89.67
2019-01-27T05:12:40.119Z,89.67
2019-01-27T05:13:40.247Z,89.67
2019-01-27T05:14:40.142Z,89.36
2019-01-27T05:15:40.241Z,89.87
2019-01-27T05:16:40.090Z,89.46
2019-01-27T05:17:40.971Z,89.87
2019-01-27T05:18:43.129Z,89.77
2019-01-27T05:19:40.083Z,89.77
2019-01-27T05:20:40.060Z,89.87
2019-01-27T05:21:40.882Z,89.67
2019-01-27T05:22:40.207Z,89.77
2019-01-27T05:23:40.036Z,89.56
2019-01-27T05:24:40.057Z,89.87
2019-01-27T05:25:40.514Z,89.56
2019-01-27T05:26:41.054Z,89.67
2019-01-27T05:27:40.036Z,89.77
2019-01-27T05:28:40.883Z,89.46
2019-01-27T05:29:39.941Z,89.36
2019-01-27T05:30:40.012Z,89.77
2019-01-27T05:31:39.921Z,89.56
2019-01-27T05:32:39.975Z,89.92
2019-01-27T05:33:39.957Z,89.77
2019-01-27T05:34:39.962Z,89.92
2019-01-27T05:35:40.105Z,89.67
2019-01-27T05:36:39.975Z,90.02
2019-01-27T05:37:39.902Z,89.98
2019-01-27T05:38:40.011Z,90.33
2019-01-27T05:39:39.873Z,89.98
2019-01-27T05:40:39.798Z,89.81
2019-01-27T05:41:39.805Z,89.56
2019-01-27T05:42:39.870Z,90.02
2019-01-27T05:43:39.897Z,90.02
2019-01-27T05:44:39.802Z,90.08
2019-01-27T05:45:40.218Z,90.08
2019-01-27T05:46:41.415Z,89.77
2019-01-27T05:47:39.767Z,89.92
2019-01-27T05:48:42.495Z,89.56
2019-01-27T05:49:39.735Z,90.02
2019-01-27T05:50:39.772Z,89.98
2019-01-27T05:51:40.489Z,90.12
2019-01-27T05:52:39.804Z,89.77
2019-01-27T05:53:41.391Z,90.02
2019-01-27T05:54:39.684Z,90.08
2019-01-27T05:55:39.721Z,90.08
2019-01-27T05:56:39.730Z,89.81
2019-01-27T05:57:41.438Z,89.77
2019-01-27T05:58:40.560Z,90.33
2019-01-27T05:59:39.623Z,90.33
2019-01-27T06:00:40.391Z,90.49
2019-01-27T06:01:40.494Z,90.43
2019-01-27T06:02:39.583Z,90.28
2019-01-27T06:03:41.418Z,90.39
2019-01-27T06:04:39.563Z,89.77
2019-01-27T06:05:39.597Z,89.98
2019-01-27T06:06:40.530Z,89.87
2019-01-27T06:07:39.575Z,90.02
2019-01-27T06:08:39.609Z,89.92
2019-01-27T06:09:39.485Z,90.22
2019-01-27T06:10:39.469Z,90.33
2019-01-27T06:11:39.475Z,90.19
2019-01-27T06:12:39.507Z,90.43
2019-01-27T06:13:40.578Z,90.95
2019-01-27T06:14:39.579Z,90.84
2019-01-27T06:15:39.452Z,90.84
2019-01-27T06:16:39.441Z,90.43
2019-01-27T06:17:39.516Z,90.64
2019-01-27T06:18:39.388Z,90.70
2019-01-27T06:19:40.480Z,90.95
2019-01-27T06:20:39.460Z,91.42
2019-01-27T06:21:39.915Z,90.49
2019-01-27T06:22:40.892Z,90.59
2019-01-27T06:23:39.409Z,90.49
2019-01-27T06:24:40.027Z,90.49
2019-01-27T06:25:39.333Z,90.53
2019-01-27T06:26:39.916Z,90.53
2019-01-27T06:27:39.540Z,90.59
2019-01-27T06:28:39.309Z,90.49
2019-01-27T06:29:39.348Z,90.74
2019-01-27T06:30:39.299Z,90.95
2019-01-27T06:31:39.263Z,90.70
2019-01-27T06:32:40.002Z,90.84
2019-01-27T06:33:39.245Z,90.64
2019-01-27T06:34:39.225Z,91.01
2019-01-27T06:35:39.312Z,90.64
2019-01-27T06:36:39.202Z,90.64
2019-01-27T06:37:42.033Z,90.64
2019-01-27T06:38:39.177Z,90.64
2019-01-27T06:39:39.260Z,90.64
2019-01-27T06:40:39.186Z,90.53
2019-01-27T06:41:40.912Z,91.46
2019-01-27T06:42:39.132Z,90.64
2019-01-27T06:43:40.162Z,91.26
2019-01-27T06:44:39.114Z,90.95
2019-01-27T06:45:40.040Z,91.36
2019-01-27T06:46:39.110Z,91.05
2019-01-27T06:47:39.075Z,91.16
2019-01-27T06:48:39.999Z,91.26
2019-01-27T06:49:39.131Z,91.26
2019-01-27T06:50:39.898Z,91.46
2019-01-27T06:51:39.138Z,91.26
2019-01-27T06:52:39.030Z,91.16
2019-01-27T06:53:39.035Z,90.64
2019-01-27T06:54:39.181Z,90.64
2019-01-27T06:55:39.017Z,91.46
2019-01-27T06:56:39.037Z,91.16
2019-01-27T06:57:38.962Z,91.36
2019-01-27T06:58:38.958Z,91.20
2019-01-27T06:59:40.424Z,91.36
2019-01-27T07:00:39.231Z,90.64
2019-01-27T07:01:38.957Z,90.64
2019-01-27T07:02:38.964Z,90.74
2019-01-27T07:03:38.889Z,90.33
2019-01-27T07:04:38.991Z,90.74
2019-01-27T07:05:38.881Z,90.43
2019-01-27T07:06:39.043Z,90.02
2019-01-27T07:07:38.948Z,89.92
2019-01-27T07:08:38.838Z,90.12
2019-01-27T07:09:38.881Z,90.02
2019-01-27T07:10:39.531Z,89.81
2019-01-27T07:11:38.952Z,89.81
2019-01-27T07:12:39.407Z,89.87
2019-01-27T07:13:38.804Z,89.46
2019-01-27T07:14:40.527Z,89.61
2019-01-27T07:15:38.763Z,89.40
2019-01-27T07:16:38.838Z,89.40
2019-01-27T07:17:38.764Z,88.78
2019-01-27T07:18:38.870Z,88.53
2019-01-27T07:19:38.736Z,88.43
2019-01-27T07:20:38.723Z,89.05
2019-01-27T07:21:38.702Z,88.53
2019-01-27T07:22:39.374Z,87.60
2019-01-27T07:23:39.405Z,86.98
2019-01-27T07:24:39.427Z,86.61
2019-01-27T07:25:38.719Z,86.36
2019-01-27T07:26:41.505Z,86.88
2019-01-27T07:27:38.626Z,86.78
2019-01-27T07:28:39.517Z,86.68
2019-01-27T07:29:38.653Z,86.16
2019-01-27T07:30:38.751Z,86.16
2019-01-27T07:31:38.876Z,86.57
2019-01-27T07:32:38.610Z,86.68
2019-01-27T07:33:38.532Z,86.36
2019-01-27T07:34:38.742Z,85.85
2019-01-27T07:35:38.489Z,85.75
2019-01-27T07:36:38.552Z,85.85
2019-01-27T07:37:38.612Z,85.95
2019-01-27T07:38:38.489Z,85.75
2019-01-27T07:39:38.547Z,85.95
2019-01-27T07:40:38.520Z,86.47
2019-01-27T07:41:38.455Z,86.26
2019-01-27T07:42:38.429Z,86.26
2019-01-27T07:43:38.493Z,86.36
2019-01-27T07:44:38.465Z,86.26
2019-01-27T07:45:38.423Z,86.36
2019-01-27T07:46:38.457Z,86.47
2019-01-27T07:47:38.617Z,86.22
2019-01-27T07:48:38.968Z,86.26
2019-01-27T07:49:38.449Z,85.75
2019-01-27T07:50:38.584Z,85.75
2019-01-27T07:51:39.002Z,85.85
2019-01-27T07:52:38.357Z,85.75
2019-01-27T07:53:39.015Z,86.16
2019-01-27T07:54:38.340Z,85.95
2019-01-27T07:55:38.426Z,85.60
2019-01-27T07:56:38.411Z,85.85
2019-01-27T07:57:38.285Z,85.85
2019-01-27T07:58:38.382Z,86.26
2019-01-27T07:59:38.298Z,86.22
2019-01-27T08:00:39.168Z,86.63
2019-01-27T08:01:38.251Z,86.43
2019-01-27T08:02:38.370Z,86.43
2019-01-27T08:03:38.347Z,86.74
2019-01-27T08:04:38.272Z,86.43
2019-01-27T08:05:38.732Z,86.53
2019-01-27T08:06:38.183Z,86.32
2019-01-27T08:07:38.919Z,86.32
2019-01-27T08:08:38.997Z,86.84
2019-01-27T08:09:38.195Z,86.32
2019-01-27T08:10:38.934Z,86.22
2019-01-27T08:11:38.123Z,85.81
2019-01-27T08:12:38.129Z,86.22
2019-01-27T08:13:38.188Z,86.43
2019-01-27T08:14:39.079Z,86.22
2019-01-27T08:15:38.141Z,86.53
2019-01-27T08:16:38.024Z,86.32
2019-01-27T08:17:38.237Z,86.22
2019-01-27T08:18:38.098Z,86.02
2019-01-27T08:19:38.488Z,86.02
2019-01-27T08:20:37.996Z,86.63
2019-01-27T08:21:38.013Z,86.74
2019-01-27T08:22:37.968Z,86.32
2019-01-27T08:23:37.953Z,86.74
2019-01-27T08:24:37.942Z,86.43
2019-01-27T08:25:38.953Z,86.74
2019-01-27T08:26:37.910Z,86.74
2019-01-27T08:27:37.986Z,86.84
2019-01-27T08:28:37.899Z,86.84
2019-01-27T08:29:38.508Z,87.05
2019-01-27T08:30:37.931Z,86.43
2019-01-27T08:31:37.880Z,86.74
2019-01-27T08:32:37.849Z,86.32
2019-01-27T08:33:37.883Z,86.43
2019-01-27T08:34:37.883Z,86.74
2019-01-27T08:35:37.825Z,86.63
2019-01-27T08:36:37.811Z,86.74
2019-01-27T08:37:38.012Z,85.81
2019-01-27T08:38:38.420Z,86.43
2019-01-27T08:39:37.772Z,86.39
2019-01-27T08:40:37.759Z,86.32
2019-01-27T08:41:37.770Z,86.43
2019-01-27T08:42:37.736Z,86.39
2019-01-27T08:43:37.743Z,86.39
2019-01-27T08:44:37.718Z,86.29
2019-01-27T08:45:37.702Z,86.43
2019-01-27T08:46:37.691Z,86.18
2019-01-27T08:47:37.718Z,85.57
2019-01-27T08:48:38.066Z,85.05
2019-01-27T08:49:37.663Z,84.84
2019-01-27T08:50:37.640Z,85.57
2019-01-27T08:51:37.659Z,85.15
2019-01-27T08:52:37.628Z,85.36
2019-01-27T08:53:37.645Z,85.46
2019-01-27T08:54:37.709Z,85.97
2019-01-27T08:55:38.420Z,85.97
2019-01-27T08:56:37.581Z,85.67
2019-01-27T08:57:37.610Z,85.57
2019-01-27T08:58:37.555Z,85.36
2019-01-27T08:59:37.583Z,85.36
2019-01-27T09:00:37.534Z,85.36
2019-01-27T09:01:37.523Z,85.57
2019-01-27T09:02:37.516Z,85.77
2019-01-27T09:03:37.535Z,85.94
2019-01-27T09:04:37.490Z,85.97
2019-01-27T09:05:37.484Z,85.94
2019-01-27T09:06:37.469Z,85.57
2019-01-27T09:07:37.455Z,85.97
2019-01-27T09:08:37.453Z,85.97
2019-01-27T09:09:37.460Z,85.46
2019-01-27T09:10:37.513Z,85.52
2019-01-27T09:11:37.423Z,85.73
2019-01-27T09:12:37.401Z,85.31
2019-01-27T09:13:37.392Z,85.52
2019-01-27T09:14:37.525Z,84.80
2019-01-27T09:15:37.406Z,85.11
2019-01-27T09:16:37.364Z,85.01
2019-01-27T09:17:37.342Z,84.91
2019-01-27T09:18:37.343Z,85.22
2019-01-27T09:19:37.324Z,85.01
2019-01-27T09:20:37.340Z,84.49
2019-01-27T09:21:37.379Z,84.91
2019-01-27T09:22:37.292Z,85.22
2019-01-27T09:23:37.278Z,85.31
2019-01-27T09:24:37.293Z,85.31
2019-01-27T09:25:37.255Z,85.22
2019-01-27T09:26:37.267Z,85.42
2019-01-27T09:27:37.232Z,85.22
2019-01-27T09:28:37.239Z,85.22
2019-01-27T09:29:37.222Z,85.42
2019-01-27T09:30:37.203Z,85.22
2019-01-27T09:31:37.224Z,85.42
2019-01-27T09:32:37.193Z,85.31
2019-01-27T09:33:37.160Z,85.31
2019-01-27T09:34:37.337Z,85.22
2019-01-27T09:35:37.153Z,85.31
2019-01-27T09:36:37.494Z,85.42
2019-01-27T09:37:37.137Z,84.49
2019-01-27T09:38:37.124Z,84.80
2019-01-27T09:39:37.117Z,84.70
2019-01-27T09:40:37.086Z,84.80
2019-01-27T09:41:37.104Z,84.80
2019-01-27T09:42:37.111Z,84.91
2019-01-27T09:43:37.054Z,84.39
2019-01-27T09:44:37.040Z,84.59
2019-01-27T09:45:37.030Z,84.80
2019-01-27T09:46:37.027Z,84.80
2019-01-27T09:47:37.006Z,83.87
2019-01-27T09:48:37.014Z,85.01
2019-01-27T09:49:37.020Z,85.01
2019-01-27T09:50:37.077Z,83.47
2019-01-27T09:51:36.964Z,83.42
2019-01-27T09:52:36.959Z,83.42
2019-01-27T09:53:36.947Z,83.36
2019-01-27T09:54:36.960Z,83.42
2019-01-27T09:55:36.998Z,83.53
2019-01-27T09:56:36.904Z,83.22
2019-01-27T09:57:36.894Z,83.32
2019-01-27T09:58:36.884Z,83.73
2019-01-27T09:59:36.878Z,83.67
2019-01-27T10:00:36.900Z,85.01
2019-01-27T10:01:36.859Z,85.22
2019-01-27T10:02:36.922Z,85.52
2019-01-27T10:03:36.836Z,85.73
2019-01-27T10:04:36.832Z,86.24
2019-01-27T10:05:36.851Z,86.24
2019-01-27T10:06:36.796Z,86.35
2019-01-27T10:07:36.787Z,86.29
2019-01-27T10:08:36.784Z,85.94
2019-01-27T10:09:36.789Z,86.39
2019-01-27T10:10:36.762Z,86.35
2019-01-27T10:11:36.761Z,86.76
2019-01-27T10:12:36.766Z,86.80
2019-01-27T10:13:36.714Z,87.38
2019-01-27T10:14:36.749Z,87.38
2019-01-27T10:15:36.694Z,87.93
2019-01-27T10:16:36.721Z,87.32
2019-01-27T10:17:36.742Z,87.48
2019-01-27T10:18:36.665Z,87.07
2019-01-27T10:19:36.686Z,87.52
2019-01-27T10:20:36.650Z,87.69
2019-01-27T10:21:36.632Z,87.79
2019-01-27T10:22:36.641Z,87.69
2019-01-27T10:23:36.610Z,87.83
2019-01-27T10:24:36.602Z,87.38
2019-01-27T10:25:36.622Z,87.93
2019-01-27T10:26:36.574Z,88.04
2019-01-27T10:27:36.567Z,88.24
2019-01-27T10:28:36.579Z,87.93
2019-01-27T10:29:36.547Z,88.31
2019-01-27T10:30:36.714Z,88.14
2019-01-27T10:31:36.521Z,88.41
2019-01-27T10:32:36.507Z,88.31
2019-01-27T10:33:36.586Z,88.20
2019-01-27T10:34:36.493Z,88.14
2019-01-27T10:35:42.660Z,88.31
2019-01-27T10:36:37.494Z,88.04
2019-01-27T10:37:36.468Z,88.24
2019-01-27T10:38:36.445Z,88.04
2019-01-27T10:39:36.447Z,88.35
2019-01-27T10:40:39.618Z,89.28
2019-01-27T10:41:36.432Z,89.28
2019-01-27T10:42:36.394Z,89.38
2019-01-27T10:43:36.389Z,89.44
2019-01-27T10:44:36.374Z,89.28
2019-01-27T10:45:36.375Z,89.28
2019-01-27T10:46:36.353Z,89.34
2019-01-27T10:47:36.376Z,89.03
2019-01-27T10:48:36.334Z,87.99
2019-01-27T10:49:36.936Z,88.56
2019-01-27T10:50:36.313Z,88.35
2019-01-27T10:51:36.297Z,89.17
2019-01-27T10:52:36.298Z,89.38
2019-01-27T10:53:36.271Z,89.38
2019-01-27T10:54:36.261Z,89.38
2019-01-27T10:55:36.254Z,88.96
2019-01-27T10:56:36.239Z,89.28
2019-01-27T10:57:36.277Z,88.86
2019-01-27T10:58:36.213Z,88.35
2019-01-27T10:59:36.222Z,88.35
2019-01-27T11:00:36.285Z,88.56
2019-01-27T11:01:36.186Z,88.24
2019-01-27T11:02:37.141Z,88.35
2019-01-27T11:03:36.166Z,88.35
2019-01-27T11:04:36.148Z,88.24
2019-01-27T11:05:36.181Z,87.32
2019-01-27T11:06:36.124Z,88.65
2019-01-27T11:07:36.121Z,87.42
2019-01-27T11:08:36.112Z,88.35
2019-01-27T11:09:36.121Z,88.35
2019-01-27T11:10:36.120Z,88.24
2019-01-27T11:11:36.076Z,87.83
2019-01-27T11:12:36.072Z,87.63
2019-01-27T11:13:36.069Z,88.24
2019-01-27T11:14:36.037Z,87.52
2019-01-27T11:15:36.021Z,87.52
2019-01-27T11:16:36.046Z,87.73
2019-01-27T11:17:36.016Z,87.83
2019-01-27T11:18:35.999Z,88.35
2019-01-27T11:19:36.015Z,88.65
2019-01-27T11:20:40.018Z,87.83
2019-01-27T11:21:35.989Z,88.04
2019-01-27T11:22:35.957Z,88.24
2019-01-27T11:23:35.984Z,88.35
2019-01-27T11:24:35.929Z,89.17
2019-01-27T11:25:35.912Z,89.32
2019-01-27T11:26:35.907Z,89.42
2019-01-27T11:27:35.925Z,89.73
2019-01-27T11:28:35.887Z,89.94
2019-01-27T11:29:35.872Z,90.35
2019-01-27T11:30:35.860Z,90.66
2019-01-27T11:31:35.846Z,90.66
2019-01-27T11:32:36.460Z,91.01
2019-01-27T11:33:35.853Z,91.01
2019-01-27T11:34:35.822Z,91.52
2019-01-27T11:35:35.833Z,91.94
2019-01-27T11:36:35.808Z,92.66
2019-01-27T11:37:35.827Z,92.40
2019-01-27T11:38:35.765Z,92.29
2019-01-27T11:39:35.788Z,92.60
2019-01-27T11:40:35.892Z,92.08
2019-01-27T11:41:35.734Z,92.40
2019-01-27T11:42:35.738Z,92.55
2019-01-27T11:43:35.914Z,92.76
2019-01-27T11:44:35.730Z,92.80
2019-01-27T11:45:35.689Z,92.66
2019-01-27T11:46:35.692Z,91.67
2019-01-27T11:47:35.672Z,92.55
2019-01-27T11:48:35.665Z,91.52
2019-01-27T11:49:35.672Z,91.77
2019-01-27T11:50:35.668Z,90.91
2019-01-27T11:51:35.634Z,91.05
2019-01-27T11:52:35.614Z,91.63
2019-01-27T11:53:35.605Z,91.73
2019-01-27T11:54:35.592Z,91.94
2019-01-27T11:55:35.611Z,91.94
2019-01-27T11:56:35.760Z,91.52
2019-01-27T11:57:35.559Z,92.04
2019-01-27T11:58:35.553Z,91.94
2019-01-27T11:59:35.557Z,92.04
2019-01-27T12:00:35.529Z,90.59
2019-01-27T12:01:35.535Z,91.22
2019-01-27T12:02:35.552Z,91.52
2019-01-27T12:03:35.501Z,91.63
2019-01-27T12:04:35.484Z,91.32
2019-01-27T12:05:35.468Z,91.94
2019-01-27T12:06:35.500Z,91.01
2019-01-27T12:07:35.453Z,90.95
2019-01-27T12:08:35.464Z,91.36
2019-01-27T12:09:35.433Z,91.36
2019-01-27T12:10:35.413Z,91.67
2019-01-27T12:11:35.434Z,91.36
2019-01-27T12:12:35.413Z,91.46
2019-01-27T12:13:35.410Z,91.67
2019-01-27T12:14:35.388Z,91.36
2019-01-27T12:15:35.358Z,91.56
2019-01-27T12:16:35.347Z,91.67
2019-01-27T12:17:35.333Z,92.08
2019-01-27T12:18:35.365Z,91.16
2019-01-27T12:19:35.319Z,91.26
2019-01-27T12:20:35.349Z,92.29
2019-01-27T12:21:35.294Z,91.77
2019-01-27T12:22:35.298Z,92.40
2019-01-27T12:23:35.958Z,92.64
2019-01-27T12:24:35.257Z,92.33
2019-01-27T12:25:35.252Z,92.74
2019-01-27T12:26:35.283Z,92.64
2019-01-27T12:27:35.255Z,93.68
2019-01-27T12:28:35.229Z,93.26
2019-01-27T12:29:35.209Z,93.68
2019-01-27T12:30:35.198Z,93.57
2019-01-27T12:31:35.204Z,94.56
2019-01-27T12:32:35.177Z,94.29
2019-01-27T12:33:35.165Z,94.71
2019-01-27T12:34:35.146Z,94.29
2019-01-27T12:35:35.147Z,93.98
2019-01-27T12:36:35.134Z,94.56
2019-01-27T12:37:35.141Z,93.88
2019-01-27T12:38:35.104Z,94.40
2019-01-27T12:39:35.264Z,94.40
2019-01-27T12:40:35.078Z,94.60
2019-01-27T12:41:35.071Z,94.71
2019-01-27T12:42:35.068Z,94.92
2019-01-27T12:43:35.071Z,95.12
2019-01-27T12:44:35.061Z,95.32
2019-01-27T12:45:35.030Z,95.53
2019-01-27T12:46:35.032Z,95.12
2019-01-27T12:47:35.008Z,95.22
2019-01-27T12:48:34.996Z,95.32
2019-01-27T12:49:34.981Z,95.22
2019-01-27T12:50:35.004Z,95.59
2019-01-27T12:51:34.959Z,95.53
2019-01-27T12:52:34.955Z,94.92